Time;durP1;ratioP1;P1;durP2;ratioP2;P2;SDS_P1;SDS_P2;PMS_P1;PMS_P2;Temp;Humidity;BMP_temperature;BMP_pressure;BME280_temperature;BME280_humidity;BME280_pressure;Samples;Min_cycle;Max_cycle;Signal;HPM_P1;HPM_P2
2021/11/15 00:01:25;;;;;;;;;30.50;29.00;;;;;10.39;66.66;102014.34;4926983;28;47277;-96
2021/11/15 00:03:50;;;;;;;;;39.50;33.00;;;;;10.30;66.36;102005.88;4935304;28;45261;-96
2021/11/15 00:06:16;;;;;;;;;36.00;32.50;;;;;10.37;66.30;102023.84;4940126;28;45350;-96
2021/11/15 00:08:41;;;;;;;;;46.25;34.50;;;;;10.24;66.76;102001.13;4955630;28;45303;-96
2021/11/15 00:11:07;;;;;;;;;40.75;34.50;;;;;10.21;66.66;102000.91;4938476;28;47297;-96
2021/11/15 00:13:33;;;;;;;;;34.75;28.00;;;;;10.26;66.91;102015.25;4939955;28;44917;-96
2021/11/15 00:15:58;;;;;;;;;41.75;35.50;;;;;10.28;66.72;102025.03;4937328;28;45320;-96
2021/11/15 00:18:24;;;;;;;;;32.00;32.00;;;;;10.26;66.76;102013.53;4924750;28;45346;-96
2021/11/15 00:20:50;;;;;;;;;34.00;27.75;;;;;10.34;66.70;102029.81;4948757;28;47067;-96
2021/11/15 00:23:15;;;;;;;;;39.50;35.75;;;;;10.34;66.83;102035.06;4922028;28;45602;-96
2021/11/15 00:25:41;;;;;;;;;36.50;33.75;;;;;10.17;67.02;102007.69;4919456;28;45427;-96
2021/11/15 00:28:06;;;;;;;;;37.75;32.25;;;;;10.17;67.12;102012.94;4916491;28;45398;-96
2021/11/15 00:30:32;;;;;;;;;33.75;31.00;;;;;10.16;66.56;102017.25;4935033;28;47241;-96
2021/11/15 00:32:57;;;;;;;;;35.50;29.25;;;;;10.10;67.25;102003.72;4934735;28;45924;-96
2021/11/15 00:35:24;;;;;;;;;39.00;31.75;;;;;10.09;67.19;102015.03;4937517;28;45425;-96
2021/11/15 00:37:50;;;;;;;;;35.75;31.50;;;;;10.05;66.60;102006.03;4938051;28;45509;-96
2021/11/15 00:40:16;;;;;;;;;38.25;32.25;;;;;10.09;66.82;102019.38;4926577;28;48718;-96
2021/11/15 00:42:41;;;;;;;;;43.25;35.00;;;;;10.10;66.84;102027.31;4929398;28;45365;-96
2021/11/15 00:45:07;;;;;;;;;40.00;31.50;;;;;10.16;67.09;102035.63;4939469;28;45235;-96
2021/11/15 00:47:33;;;;;;;;;39.25;32.25;;;;;10.05;66.58;102028.75;4938966;28;45186;-96
2021/11/15 00:50:02;;;;;;;;;36.50;34.50;;;;;10.14;66.26;102045.13;4938978;28;48574;-96
2021/11/15 00:52:28;;;;;;;;;36.75;32.50;;;;;9.99;66.47;102031.88;4935621;28;45343;-96
2021/11/15 00:54:54;;;;;;;;;36.00;29.00;;;;;9.96;66.43;102031.66;4918009;28;45507;-96
2021/11/15 00:57:19;;;;;;;;;36.25;30.25;;;;;9.84;66.39;102016.88;4920665;28;45282;-96
2021/11/15 00:59:44;;;;;;;;;35.75;30.75;;;;;9.87;66.21;102020.53;4935715;28;47077;-96
2021/11/15 01:02:10;;;;;;;;;37.75;31.75;;;;;9.81;66.03;102023.63;4932306;28;45454;-96
2021/11/15 01:04:35;;;;;;;;;42.25;31.50;;;;;9.86;66.26;102037.06;4944976;28;45334;-96
2021/11/15 01:07:01;;;;;;;;;46.75;35.00;;;;;9.76;66.64;102025.03;4930951;28;45198;-96
2021/11/15 01:09:27;;;;;;;;;49.25;39.25;;;;;9.69;66.82;102024.59;4950684;28;46971;-96
2021/11/15 01:11:53;;;;;;;;;44.25;37.50;;;;;9.86;66.65;102060.66;4932274;28;45384;-96
2021/11/15 01:14:18;;;;;;;;;44.75;36.00;;;;;9.70;66.78;102033.38;4951080;28;45078;-96
2021/11/15 01:16:44;;;;;;;;;36.75;31.75;;;;;9.69;66.89;102035.06;4921751;28;44782;-96
2021/11/15 01:19:09;;;;;;;;;37.50;35.25;;;;;9.66;66.35;102031.34;4932473;28;48213;-96
2021/11/15 01:21:35;;;;;;;;;37.50;34.25;;;;;9.71;66.65;102044.00;4922192;28;45492;-96
2021/11/15 01:24:01;;;;;;;;;38.50;32.75;;;;;9.48;66.40;102001.31;4934740;28;45453;-96
2021/11/15 01:26:27;;;;;;;;;45.75;37.25;;;;;9.68;66.58;102045.47;4936125;28;45292;-96
2021/11/15 01:28:52;;;;;;;;;44.25;35.50;;;;;9.52;66.78;102022.50;4935357;28;47333;-96
2021/11/15 01:31:18;;;;;;;;;31.25;25.25;;;;;9.45;67.10;102019.47;4924026;28;54392;-96
2021/11/15 01:33:44;;;;;;;;;41.00;31.25;;;;;9.57;67.03;102035.13;4930068;28;45546;-96
2021/11/15 01:36:09;;;;;;;;;32.25;29.00;;;;;9.43;67.30;102014.91;4952071;28;45410;-96
2021/11/15 01:38:34;;;;;;;;;40.25;33.25;;;;;9.41;67.46;102012.16;4936733;28;47217;-96
2021/11/15 01:41:01;;;;;;;;;33.00;30.25;;;;;9.39;66.78;102012.06;4935233;28;45241;-96
2021/11/15 01:43:26;;;;;;;;;32.50;26.50;;;;;9.45;67.22;102032.56;4933134;28;45350;-96
2021/11/15 01:45:52;;;;;;;;;36.00;33.00;;;;;9.38;67.91;102020.72;4930755;28;45507;-96
2021/11/15 01:48:18;;;;;;;;;38.75;35.00;;;;;9.36;67.78;102019.72;4920347;28;48250;-96
2021/11/15 01:50:43;;;;;;;;;35.25;31.50;;;;;9.40;67.81;102023.47;4930108;28;45270;-96
2021/11/15 01:53:09;;;;;;;;;36.25;31.50;;;;;9.35;67.76;102023.16;4928817;28;45602;-96
2021/11/15 01:55:35;;;;;;;;;34.00;29.00;;;;;9.43;67.69;102030.66;4926202;28;44818;-96
2021/11/15 01:58:03;;;;;;;;;38.75;32.00;;;;;9.35;67.14;102020.53;4930171;28;47511;-96
2021/11/15 02:00:38;;;;;;;;;29.75;27.25;;;;;9.34;67.48;102020.41;4931362;28;45416;-96
2021/11/15 02:03:03;;;;;;;;;40.75;33.50;;;;;9.39;67.34;102027.78;4935802;28;45467;-96
2021/11/15 02:05:29;;;;;;;;;41.00;33.75;;;;;9.32;67.54;102020.31;4935219;28;45544;-96
2021/11/15 02:07:54;;;;;;;;;37.75;32.75;;;;;9.36;66.97;102031.91;4925674;28;47452;-96
2021/11/15 02:10:19;;;;;;;;;40.00;31.50;;;;;9.26;67.56;102025.09;4935920;28;45296;-96
2021/11/15 02:12:45;;;;;;;;;37.50;33.25;;;;;9.39;67.48;102058.31;4937044;28;45294;-96
2021/11/15 02:15:11;;;;;;;;;32.50;28.75;;;;;9.25;67.21;102029.41;4955920;28;45454;-96
2021/11/15 02:17:38;;;;;;;;;49.75;36.25;;;;;9.43;67.34;102064.72;4943287;28;47188;-96
2021/11/15 02:20:08;;;;;;;;;31.50;31.50;;;;;9.41;67.28;102061.97;4956608;28;45434;-96
2021/11/15 02:22:36;;;;;;;;;43.25;33.50;;;;;9.20;67.04;102027.28;4954637;28;45355;-96
2021/11/15 02:25:06;;;;;;;;;38.50;35.25;;;;;9.18;67.11;102035.03;4946481;28;45364;-96
2021/11/15 02:27:31;;;;;;;;;41.00;32.50;;;;;9.28;67.32;102042.75;4949795;28;46621;-96
2021/11/15 02:29:57;;;;;;;;;35.50;32.00;;;;;9.29;66.94;102046.28;4956074;28;44976;-96
2021/11/15 02:32:22;;;;;;;;;39.75;33.25;;;;;9.29;67.29;102041.03;4956122;28;45174;-96
2021/11/15 02:34:48;;;;;;;;;41.50;35.25;;;;;9.22;66.77;102028.31;4954380;28;48807;-96
2021/11/15 02:37:13;;;;;;;;;44.75;32.50;;;;;9.27;66.96;102042.66;4935054;28;47001;-96
2021/11/15 02:39:38;;;;;;;;;42.50;32.00;;;;;9.18;66.80;102026.25;4941415;28;45433;-96
2021/11/15 02:42:05;;;;;;;;;35.00;30.00;;;;;9.18;66.68;102034.09;4957072;28;45403;-96
2021/11/15 02:44:30;;;;;;;;;37.25;31.25;;;;;9.11;66.69;102024.91;4955056;28;45291;-96
2021/11/15 02:46:56;;;;;;;;;43.25;34.75;;;;;9.02;66.48;102018.19;4940225;28;47005;-96
2021/11/15 02:49:21;;;;;;;;;38.25;30.50;;;;;8.99;66.30;102014.47;4941192;28;45583;-96
2021/11/15 02:51:48;;;;;;;;;38.50;33.50;;;;;9.12;66.33;102043.34;4938243;28;44760;-96
2021/11/15 02:54:13;;;;;;;;;39.50;33.50;;;;;8.95;66.09;102026.41;4939664;28;44924;-96
2021/11/15 02:56:40;;;;;;;;;38.25;32.50;;;;;8.83;66.47;102015.97;4920678;28;47703;-96
2021/11/15 02:59:05;;;;;;;;;35.50;35.25;;;;;8.82;66.42;102024.59;4938935;28;45375;-96
2021/11/15 03:01:30;;;;;;;;;44.00;35.00;;;;;8.76;66.35;102019.81;4932919;28;45537;-96
2021/11/15 03:03:56;;;;;;;;;40.25;33.00;;;;;8.78;66.57;102027.81;4930252;28;45371;-96
2021/11/15 03:06:21;;;;;;;;;44.50;37.50;;;;;8.86;66.96;102038.84;4934491;28;53707;-96
2021/11/15 03:08:47;;;;;;;;;42.25;36.75;;;;;8.73;66.40;102024.84;4918032;28;45592;-96
2021/11/15 03:11:12;;;;;;;;;39.00;33.00;;;;;8.81;66.97;102049.00;4936894;28;45569;-96
2021/11/15 03:13:40;;;;;;;;;37.25;33.00;;;;;8.59;66.99;102008.13;4937213;28;45579;-96
2021/11/15 03:16:06;;;;;;;;;37.00;34.00;;;;;8.60;67.14;102021.34;4928410;28;47639;-96
2021/11/15 03:18:33;;;;;;;;;41.00;33.75;;;;;8.74;67.04;102050.22;4930355;28;45261;-96
2021/11/15 03:21:01;;;;;;;;;45.25;39.25;;;;;8.56;66.77;102024.47;4931820;28;45456;-96
2021/11/15 03:23:31;;;;;;;;;39.00;33.50;;;;;8.47;67.16;102009.00;4934022;28;45373;-96
2021/11/15 03:25:56;;;;;;;;;43.25;36.00;;;;;8.54;66.94;102025.16;4932433;28;47108;-96
2021/11/15 03:28:23;;;;;;;;;40.50;34.50;;;;;8.54;67.07;102023.44;4930490;28;45452;-96
2021/11/15 03:30:54;;;;;;;;;39.25;30.50;;;;;8.60;66.85;102039.66;4922425;28;45225;-96
2021/11/15 03:33:20;;;;;;;;;39.25;33.00;;;;;8.47;67.33;102022.09;4929809;28;45672;-96
2021/11/15 03:35:45;;;;;;;;;38.25;33.00;;;;;8.61;67.03;102051.00;4930231;28;47569;-96
2021/11/15 03:38:11;;;;;;;;;41.25;33.25;;;;;8.51;67.38;102041.53;4913380;28;45668;-96
2021/11/15 03:40:36;;;;;;;;;38.25;32.50;;;;;8.45;67.43;102039.34;4937783;28;45551;-96
2021/11/15 03:43:03;;;;;;;;;45.50;36.25;;;;;8.36;67.55;102017.75;4910042;28;50645;-96
2021/11/15 03:45:28;;;;;;;;;41.00;32.50;;;;;8.45;67.69;102034.13;4910469;28;47141;-96
2021/11/15 03:47:54;;;;;;;;;39.00;35.50;;;;;8.46;67.55;102043.81;4938359;28;46362;-96
2021/11/15 03:50:19;;;;;;;;;43.00;36.25;;;;;8.40;67.54;102032.00;4913917;28;45509;-96
2021/11/15 03:52:45;;;;;;;;;43.00;32.25;;;;;8.30;67.75;102023.41;4929983;28;45335;-96
2021/11/15 03:55:12;;;;;;;;;48.25;35.75;;;;;8.40;67.51;102040.72;4933015;28;48320;-96
2021/11/15 03:57:38;;;;;;;;;40.75;36.25;;;;;8.50;67.42;102060.66;4913092;28;45312;-96
2021/11/15 04:00:06;;;;;;;;;40.50;36.00;;;;;8.37;67.09;102043.13;4910931;28;45461;-96
2021/11/15 04:02:33;;;;;;;;;43.50;35.00;;;;;8.38;67.03;102053.69;4929550;28;45458;-96
2021/11/15 04:05:03;;;;;;;;;41.75;34.75;;;;;8.32;67.34;102044.50;4929636;28;48035;-96
2021/11/15 04:07:49;;;;;;;;;38.50;34.00;;;;;8.25;67.39;102036.16;4929759;28;45471;-96
2021/11/15 04:10:25;;;;;;;;;34.25;30.00;;;;;8.36;67.41;102064.84;4942321;28;45611;-96
2021/11/15 04:12:51;;;;;;;;;44.50;34.25;;;;;8.29;67.48;102055.63;4945344;28;45662;-96
2021/11/15 04:15:16;;;;;;;;;40.75;34.00;;;;;8.25;67.28;102037.84;4929190;28;48366;-96
2021/11/15 04:17:42;;;;;;;;;39.00;34.25;;;;;8.18;67.63;102026.03;4928919;28;50427;-96
2021/11/15 04:20:10;;;;;;;;;41.25;35.75;;;;;8.23;68.00;102035.13;4941791;28;45439;-96
2021/11/15 04:22:36;;;;;;;;;46.75;35.75;;;;;8.31;67.47;102042.66;4911095;28;45504;-96
2021/11/15 04:25:03;;;;;;;;;49.00;36.00;;;;;8.26;67.95;102039.69;4915182;28;47566;-96
2021/11/15 04:27:29;;;;;;;;;41.00;36.25;;;;;8.31;67.81;102042.66;4916175;28;45502;-96
2021/11/15 04:29:54;;;;;;;;;41.50;33.00;;;;;8.23;67.97;102027.28;4928390;28;45347;-96
2021/11/15 04:32:20;;;;;;;;;37.25;32.75;;;;;8.27;67.94;102036.28;4928173;28;58813;-96
2021/11/15 04:34:45;;;;;;;;;39.50;34.50;;;;;8.33;68.16;102054.13;4928203;28;46996;-96
2021/11/15 04:37:10;;;;;;;;;36.00;32.25;;;;;8.27;67.98;102041.53;4925868;28;45335;-96
2021/11/15 04:39:36;;;;;;;;;39.00;31.00;;;;;8.22;67.91;102035.03;4926698;28;46379;-96
2021/11/15 04:42:01;;;;;;;;;40.75;36.00;;;;;8.25;68.24;102041.38;4928227;28;62472;-96
2021/11/15 04:44:26;;;;;;;;;50.75;40.50;;;;;8.25;67.66;102038.78;4928241;28;47195;-96
2021/11/15 04:46:52;;;;;;;;;44.25;37.25;;;;;8.26;67.52;102038.00;4922784;28;45269;-96
2021/11/15 04:49:17;;;;;;;;;42.50;36.25;;;;;8.12;67.37;102010.78;4915678;28;45356;-96
2021/11/15 04:51:43;;;;;;;;;39.75;37.75;;;;;8.18;67.16;102026.03;4927817;28;45499;-96
2021/11/15 04:54:08;;;;;;;;;39.50;34.50;;;;;8.19;67.58;102025.25;4942992;28;47424;-96
2021/11/15 04:56:34;;;;;;;;;43.50;32.25;;;;;8.18;67.54;102027.72;4939775;28;45650;-96
2021/11/15 04:58:59;;;;;;;;;45.25;38.25;;;;;8.12;67.38;102021.25;4923063;28;46031;-96
2021/11/15 05:01:25;;;;;;;;;40.75;34.00;;;;;8.11;68.25;102015.91;4914732;28;45690;-96
2021/11/15 05:03:50;;;;;;;;;36.25;32.75;;;;;8.16;67.94;102032.84;4944330;28;54292;-96
2021/11/15 05:06:16;;;;;;;;;40.75;36.50;;;;;8.13;67.93;102024.78;4928997;28;45421;-96
2021/11/15 05:08:42;;;;;;;;;42.25;31.00;;;;;8.08;67.61;102018.28;4929716;28;45375;-96
2021/11/15 05:11:07;;;;;;;;;44.25;37.50;;;;;8.12;67.88;102018.63;4929587;28;50931;-96
2021/11/15 05:13:32;;;;;;;;;41.75;30.75;;;;;8.12;68.01;102026.47;4944755;28;47063;-96
2021/11/15 05:15:58;;;;;;;;;35.00;31.00;;;;;8.08;68.01;102013.97;4931009;28;45444;-96
2021/11/15 05:18:23;;;;;;;;;39.00;36.25;;;;;8.00;67.59;102002.00;4948671;28;45339;-96
2021/11/15 05:20:49;;;;;;;;;43.25;35.50;;;;;8.19;68.01;102035.72;4928533;28;45401;-96
2021/11/15 05:23:14;;;;;;;;;43.25;35.50;;;;;8.05;68.22;102012.03;4925959;28;47180;-96
2021/11/15 05:25:40;;;;;;;;;46.50;38.75;;;;;8.10;68.04;102016.69;4911150;28;45856;-96
2021/11/15 05:28:05;;;;;;;;;44.75;36.25;;;;;8.18;68.22;102036.50;4929835;28;45413;-96
2021/11/15 05:30:31;;;;;;;;;38.00;30.00;;;;;8.04;68.60;102020.66;4930664;28;45448;-96
2021/11/15 05:32:56;;;;;;;;;37.00;28.75;;;;;8.00;68.81;102010.75;4927617;28;47464;-96
2021/11/15 05:35:23;;;;;;;;;42.25;36.75;;;;;8.13;68.96;102027.38;4925071;28;45503;-96
2021/11/15 05:37:49;;;;;;;;;41.75;34.75;;;;;8.08;69.26;102003.50;4924440;28;45245;-96
2021/11/15 05:40:15;;;;;;;;;42.00;35.00;;;;;8.25;69.11;102022.16;4926902;28;45565;-96
2021/11/15 05:42:40;;;;;;;;;35.00;30.25;;;;;8.26;68.96;102017.06;4932753;28;47113;-96
2021/11/15 05:45:06;;;;;;;;;39.00;31.75;;;;;8.34;68.94;102021.97;4946862;28;45329;-96
2021/11/15 05:47:32;;;;;;;;;43.25;36.25;;;;;8.37;68.75;102028.34;4931077;28;45215;-96
2021/11/15 05:49:57;;;;;;;;;40.75;34.25;;;;;8.42;68.93;102036.53;4928457;28;53235;-96
2021/11/15 05:52:23;;;;;;;;;47.75;37.50;;;;;8.52;68.75;102050.31;4912020;28;46872;-96
2021/11/15 05:54:50;;;;;;;;;38.50;34.50;;;;;8.61;69.09;102069.34;4928050;28;44862;-96
2021/11/15 05:57:15;;;;;;;;;43.25;28.25;;;;;8.49;69.06;102038.81;4929348;28;45376;-96
2021/11/15 05:59:40;;;;;;;;;45.75;36.75;;;;;8.49;68.76;102038.81;4928549;28;46225;-96
2021/11/15 06:02:06;;;;;;;;;48.00;36.75;;;;;8.58;68.81;102049.06;4944343;28;47421;-96
2021/11/15 06:04:31;;;;;;;;;47.00;36.00;;;;;8.67;68.77;102058.41;4925481;28;45847;-96
2021/11/15 06:06:57;;;;;;;;;37.00;32.50;;;;;8.67;69.01;102056.72;4914863;28;45717;-96
2021/11/15 06:09:22;;;;;;;;;38.00;30.00;;;;;8.57;68.81;102031.53;4943918;28;45820;-96
2021/11/15 06:11:47;;;;;;;;;39.50;31.25;;;;;8.69;68.65;102047.25;4929513;28;47007;-96
2021/11/15 06:14:13;;;;;;;;;37.25;27.75;;;;;8.73;68.33;102053.66;4926861;28;45309;-96
2021/11/15 06:16:38;;;;;;;;;33.75;30.00;;;;;8.74;68.05;102052.84;4942144;28;45356;-96
2021/11/15 06:19:04;;;;;;;;;41.00;34.75;;;;;8.68;68.23;102045.47;4937132;28;45518;-96
2021/11/15 06:21:29;;;;;;;;;32.75;31.00;;;;;8.65;68.56;102045.22;4950261;28;48076;-96
2021/11/15 06:23:55;;;;;;;;;49.25;39.00;;;;;8.83;68.21;102074.50;4951864;28;45902;-96
2021/11/15 06:26:20;;;;;;;;;52.75;39.50;;;;;8.64;68.17;102039.84;4937528;28;45603;-96
2021/11/15 06:28:48;;;;;;;;;52.00;40.25;;;;;8.75;68.45;102057.28;4947443;28;46728;-96
2021/11/15 06:31:14;;;;;;;;;50.50;39.50;;;;;8.77;68.31;102049.53;4930411;28;47673;-96
2021/11/15 06:33:39;;;;;;;;;46.25;38.50;;;;;8.77;68.40;102049.53;4926847;28;45494;-96
2021/11/15 06:36:05;;;;;;;;;43.50;38.25;;;;;8.90;68.35;102067.06;4928743;28;45460;-96
2021/11/15 06:38:30;;;;;;;;;38.00;33.75;;;;;8.93;68.40;102062.06;4911496;28;45552;-96
2021/11/15 06:40:56;;;;;;;;;47.00;38.50;;;;;8.93;67.92;102062.97;4940831;28;47112;-96
2021/11/15 06:43:21;;;;;;;;;42.50;37.00;;;;;8.88;67.56;102066.03;4928404;28;45316;-96
2021/11/15 06:45:47;;;;;;;;;42.25;34.50;;;;;8.80;67.64;102066.41;4921940;28;45425;-96
2021/11/15 06:48:13;;;;;;;;;40.25;34.00;;;;;8.76;68.12;102059.09;4934845;28;45310;-96
2021/11/15 06:50:38;;;;;;;;;42.75;35.25;;;;;8.80;68.37;102055.00;4967478;28;47365;-96
2021/11/15 06:53:04;;;;;;;;;40.00;36.50;;;;;8.88;68.32;102060.81;4930611;28;45519;-96
2021/11/15 06:55:31;;;;;;;;;50.75;38.50;;;;;8.92;68.54;102061.13;4919697;28;45362;-96
2021/11/15 06:57:57;;;;;;;;;43.75;38.25;;;;;8.91;68.37;102059.34;4930769;28;45362;-96
2021/11/15 07:00:23;;;;;;;;;52.25;39.75;;;;;9.06;68.29;102084.81;4927405;28;47032;-96
2021/11/15 07:02:49;;;;;;;;;48.25;40.50;;;;;9.09;68.29;102085.06;4946039;28;45613;-96
2021/11/15 07:05:15;;;;;;;;;46.25;37.00;;;;;9.20;68.67;102100.66;4944847;28;45358;-96
2021/11/15 07:07:41;;;;;;;;;35.25;34.25;;;;;9.03;68.44;102075.03;4933796;28;45316;-96
2021/11/15 07:10:07;;;;;;;;;45.00;35.50;;;;;9.13;68.36;102081.84;4933175;28;48020;-96
2021/11/15 07:12:33;;;;;;;;;48.00;38.00;;;;;9.17;68.16;102096.09;4932855;28;45409;-96
2021/11/15 07:14:58;;;;;;;;;51.50;39.00;;;;;9.16;68.16;102099.50;4932642;28;45512;-96
2021/11/15 07:17:24;;;;;;;;;37.75;34.00;;;;;9.19;67.75;102096.19;4931755;28;45559;-95
2021/11/15 07:19:49;;;;;;;;;37.00;32.00;;;;;9.16;68.24;102089.94;4930117;28;50493;-96
2021/11/15 07:22:15;;;;;;;;;37.75;34.00;;;;;9.24;68.00;102098.34;4930982;28;56355;-96
2021/11/15 07:24:42;;;;;;;;;40.75;36.50;;;;;9.21;68.03;102078.88;4949558;28;46771;-96
2021/11/15 07:27:08;;;;;;;;;35.75;28.00;;;;;9.38;67.94;102104.59;4939318;28;45494;-85
2021/11/15 07:29:33;;;;;;;;;38.50;33.50;;;;;9.43;67.74;102110.16;4970979;28;70558;-85
2021/11/15 07:31:59;;;;;;;;;38.50;34.50;;;;;9.43;67.71;102106.66;4971113;28;65963;-86
2021/11/15 07:34:27;;;;;;;;;38.75;30.50;;;;;9.44;67.44;102106.75;4971937;28;45461;-84
2021/11/15 07:36:56;;;;;;;;;39.50;29.50;;;;;9.48;67.73;102118.38;4971968;28;45442;-85
2021/11/15 07:39:21;;;;;;;;;46.75;34.75;;;;;9.52;67.84;102120.41;4977171;28;45536;-85
2021/11/15 07:41:47;;;;;;;;;37.75;33.75;;;;;9.54;67.82;102126.66;4974937;28;45407;-85
2021/11/15 07:44:12;;;;;;;;;31.75;31.25;;;;;9.58;68.03;102125.19;4954555;28;45804;-84
2021/11/15 07:46:38;;;;;;;;;35.00;29.75;;;;;9.64;67.39;102125.59;4960815;28;49132;-86
2021/11/15 07:49:03;;;;;;;;;43.75;34.50;;;;;9.63;67.00;102126.44;4971521;28;45986;-85
2021/11/15 07:51:29;;;;;;;;;32.00;25.50;;;;;9.65;67.44;102130.06;4970373;28;68543;-85
2021/11/15 07:53:54;;;;;;;;;33.50;30.75;;;;;9.67;67.27;102138.03;4958097;28;45406;-85
2021/11/15 07:56:20;;;;;;;;;47.50;30.50;;;;;9.71;67.01;102138.38;4976289;28;63281;-85
2021/11/15 07:58:45;;;;;;;;;38.75;32.00;;;;;9.77;67.22;102151.00;4974680;28;45599;-85
2021/11/15 08:01:10;;;;;;;;;38.25;32.25;;;;;9.75;66.95;102149.06;4971866;28;45777;-85
2021/11/15 08:03:41;;;;;;;;;33.00;25.00;;;;;9.78;66.86;102152.84;4962738;28;63688;-85
2021/11/15 08:06:09;;;;;;;;;34.50;30.25;;;;;9.77;67.02;102151.00;4946549;28;45631;-85
2021/11/15 08:08:35;;;;;;;;;38.00;34.50;;;;;9.84;66.85;102155.00;4975146;28;45565;-86
2021/11/15 08:11:00;;;;;;;;;32.25;29.75;;;;;9.84;66.76;102155.00;4973073;28;45412;-85
2021/11/15 08:13:26;;;;;;;;;35.75;32.50;;;;;9.82;67.01;102144.38;4961144;28;58258;-85
2021/11/15 08:15:51;;;;;;;;;34.50;28.75;;;;;9.86;66.63;102147.22;4962866;28;45336;-85
2021/11/15 08:18:16;;;;;;;;;39.00;34.25;;;;;9.89;66.70;102142.19;4952888;28;46096;-86
2021/11/15 08:20:42;;;;;;;;;32.75;29.00;;;;;9.91;66.85;102152.00;4980219;28;46898;-85
2021/11/15 08:23:12;;;;;;;;;32.50;27.25;;;;;9.91;66.68;102140.59;4976318;28;45633;-85
2021/11/15 08:25:57;;;;;;;;;35.75;28.25;;;;;9.95;66.74;102146.16;4953037;28;50553;-85
2021/11/15 08:28:24;;;;;;;;;36.50;29.25;;;;;9.95;66.35;102155.72;4970279;28;45560;-85
2021/11/15 08:30:50;;;;;;;;;32.50;28.50;;;;;9.97;66.70;102161.09;4945531;28;52799;-86
2021/11/15 08:33:15;;;;;;;;;35.50;30.25;;;;;9.95;66.48;102155.72;4936184;28;67265;-85
2021/11/15 08:35:41;;;;;;;;;31.50;26.75;;;;;9.98;66.46;102155.03;4955091;28;45533;-85
2021/11/15 08:38:15;;;;;;;;;31.00;28.00;;;;;10.01;66.72;102163.13;4939755;28;73796;-85
2021/11/15 08:40:41;;;;;;;;;33.50;30.00;;;;;10.00;66.44;102156.06;4972650;28;45406;-87
2021/11/15 08:43:07;;;;;;;;;37.00;33.25;;;;;10.00;66.61;102149.09;4941311;28;45379;-86
2021/11/15 08:45:32;;;;;;;;;27.50;24.75;;;;;10.03;66.38;102156.25;4948900;28;45491;-85
2021/11/15 08:47:58;;;;;;;;;33.50;27.75;;;;;9.97;66.07;102143.66;4971956;28;46678;-86
2021/11/15 08:50:23;;;;;;;;;26.75;22.00;;;;;10.02;65.87;102144.88;4971400;28;45533;-85
2021/11/15 08:52:49;;;;;;;;;33.00;26.50;;;;;9.97;66.17;102146.28;4974225;28;56561;-85
2021/11/15 08:55:14;;;;;;;;;29.00;28.50;;;;;10.00;65.70;102148.22;4950018;28;44916;-86
2021/11/15 08:57:40;;;;;;;;;39.25;31.75;;;;;10.01;65.75;102148.31;4940789;28;69120;-87
2021/11/15 09:00:05;;;;;;;;;31.25;28.00;;;;;10.01;65.60;102164.03;4940621;28;60806;-85
2021/11/15 09:02:31;;;;;;;;;37.50;28.50;;;;;10.00;66.20;102154.34;4971503;28;45397;-87
2021/11/15 09:04:56;;;;;;;;;37.00;32.25;;;;;10.01;65.45;102150.00;4945645;28;68660;-86
2021/11/15 09:07:22;;;;;;;;;42.75;29.50;;;;;9.94;65.47;102135.56;4932932;28;47166;-86
2021/11/15 09:09:48;;;;;;;;;40.00;35.75;;;;;10.00;66.05;102137.72;4961468;28;63624;-86
2021/11/15 09:12:15;;;;;;;;;43.25;37.75;;;;;10.04;65.98;102142.34;4948611;28;45567;-86
2021/11/15 09:14:40;;;;;;;;;45.25;37.75;;;;;10.09;65.90;102140.06;4954517;28;45596;-86
2021/11/15 09:17:06;;;;;;;;;32.25;31.25;;;;;10.13;65.83;102136.81;4960970;28;46026;-85
2021/11/15 09:19:31;;;;;;;;;42.75;36.00;;;;;10.17;65.78;102137.19;4920744;28;67818;-87
2021/11/15 09:21:56;;;;;;;;;37.75;30.00;;;;;10.20;65.68;102139.09;4913790;28;46166;-87
2021/11/15 09:24:22;;;;;;;;;36.75;32.00;;;;;10.12;65.30;102120.19;4926419;28;45942;-85
2021/11/15 09:26:48;;;;;;;;;35.25;27.25;;;;;10.19;65.29;102131.09;4920828;28;46028;-89
2021/11/15 09:29:14;;;;;;;;;34.00;29.75;;;;;10.16;65.30;102137.03;4931053;28;45641;-87
2021/11/15 09:31:40;;;;;;;;;34.00;28.50;;;;;10.15;65.04;102141.38;4914718;28;45456;-87
2021/11/15 09:34:05;;;;;;;;;35.00;29.00;;;;;10.16;65.70;102134.41;4929227;28;45697;-87
2021/11/15 09:36:31;;;;;;;;;31.00;28.75;;;;;10.17;65.46;102128.38;4909354;28;45700;-87
2021/11/15 09:38:57;;;;;;;;;39.75;31.75;;;;;10.22;65.48;102142.75;4947351;28;45706;-86
2021/11/15 09:41:23;;;;;;;;;34.75;26.75;;;;;10.27;65.55;102153.53;4925536;28;45460;-86
2021/11/15 09:43:48;;;;;;;;;33.75;29.00;;;;;10.29;65.53;102141.44;4938330;28;45562;-86
2021/11/15 09:46:17;;;;;;;;;30.50;26.50;;;;;10.36;65.45;102150.66;4954283;28;46320;-86
2021/11/15 09:48:47;;;;;;;;;29.00;25.50;;;;;10.35;65.21;102148.84;4949926;28;45485;-88
2021/11/15 09:51:13;;;;;;;;;31.75;28.25;;;;;10.38;64.67;102157.84;4924700;28;45577;-86
2021/11/15 09:53:38;;;;;;;;;40.00;30.75;;;;;10.36;65.21;102161.16;4928518;28;58501;-85
2021/11/15 09:56:06;;;;;;;;;31.00;27.25;;;;;10.35;65.43;102165.50;4948106;28;45625;-87
2021/11/15 09:58:31;;;;;;;;;32.25;22.75;;;;;10.33;64.99;102164.47;4917269;28;45971;-86
2021/11/15 10:00:57;;;;;;;;;33.50;26.00;;;;;10.34;64.68;102166.28;4936529;28;50041;-86
2021/11/15 10:03:22;;;;;;;;;33.25;28.75;;;;;10.31;64.80;102165.19;4954826;28;45565;-86
2021/11/15 10:05:47;;;;;;;;;37.25;30.50;;;;;10.34;64.89;102162.75;4935294;28;51578;-86
2021/11/15 10:08:13;;;;;;;;;30.00;27.25;;;;;10.33;65.15;102158.31;4957809;28;45406;-86
2021/11/15 10:10:39;;;;;;;;;30.00;25.75;;;;;10.36;65.06;102158.53;4898578;28;45814;-86
2021/11/15 10:13:23;;;;;;;;;38.25;32.25;;;;;10.38;64.96;102159.56;4957535;28;45363;-86
2021/11/15 10:15:50;;;;;;;;;33.00;26.50;;;;;10.39;64.83;102158.72;4934040;28;45559;-86
2021/11/15 10:18:21;;;;;;;;;28.50;21.25;;;;;10.39;64.94;102154.38;4950859;28;45561;-86
2021/11/15 10:20:50;;;;;;;;;34.25;26.75;;;;;10.50;65.02;102159.47;4922055;28;45563;-86
2021/11/15 10:23:56;;;;;;;;;31.75;26.50;;;;;10.53;64.72;102153.56;4954994;28;45545;-86
2021/11/15 10:26:32;;;;;;;;;37.25;30.00;;;;;10.54;64.51;102150.13;4885645;28;45649;-85
2021/11/15 10:29:05;;;;;;;;;33.00;26.50;;;;;10.52;64.00;102147.38;4844841;29;46106;-87
2021/11/15 10:31:36;;;;;;;;;37.50;25.25;;;;;10.54;64.54;102158.00;4870382;29;54917;-86
2021/11/15 10:34:04;;;;;;;;;29.00;27.00;;;;;10.53;64.36;102149.22;4890784;28;45650;-86
2021/11/15 10:36:48;;;;;;;;;32.50;22.75;;;;;10.57;64.51;102145.06;4880980;29;45685;-86
2021/11/15 10:39:14;;;;;;;;;32.25;28.50;;;;;10.52;64.19;102143.84;4893635;29;45455;-86
2021/11/15 10:41:39;;;;;;;;;28.00;23.67;;;;;10.53;64.30;102146.59;4885555;28;45799;-86
2021/11/15 10:44:09;;;;;;;;;36.50;26.50;;;;;10.50;64.33;102130.59;4869435;29;45588;-86
2021/11/15 10:46:38;;;;;;;;;34.00;28.25;;;;;10.50;64.13;102136.75;4888594;28;45793;-86
2021/11/15 10:49:06;;;;;;;;;26.75;25.75;;;;;10.51;64.28;102137.72;4874928;29;45619;-86
2021/11/15 10:51:49;;;;;;;;;31.75;27.50;;;;;10.52;64.16;102131.63;4873453;29;45670;-86
2021/11/15 10:57:21;;;;;;;;;30.75;26.50;;;;;10.47;63.93;102130.38;4892226;29;45492;-85
2021/11/15 11:00:11;;;;;;;;;27.50;25.75;;;;;10.51;64.63;102132.47;4893262;28;45362;-85
2021/11/15 11:02:54;;;;;;;;;33.25;27.25;;;;;10.52;64.28;102125.47;4950395;28;46211;-86
2021/11/15 11:05:20;;;;;;;;;36.75;30.75;;;;;10.54;64.36;102119.50;4959443;28;45483;-86
2021/11/15 11:07:47;;;;;;;;;33.75;25.25;;;;;10.58;64.63;102118.03;4977881;28;46022;-86
2021/11/15 11:10:15;;;;;;;;;37.00;31.00;;;;;10.59;64.54;102106.72;4956451;28;45868;-85
2021/11/15 11:12:44;;;;;;;;;34.50;25.25;;;;;10.63;64.18;102120.94;4978565;28;50228;-86
2021/11/15 11:15:30;;;;;;;;;35.75;26.25;;;;;10.65;64.18;102114.06;4922512;28;45411;-86